createdAt,value
2018-12-09T00:02:30.785Z,5.70
2018-12-09T00:06:42.053Z,6.00
2018-12-09T00:10:48.071Z,6.00
2018-12-09T00:14:53.249Z,6.10
2018-12-09T00:18:59.816Z,6.10
2018-12-09T00:23:04.996Z,6.00
2018-12-09T00:27:12.083Z,5.90
2018-12-09T00:31:20.288Z,5.90
2018-12-09T00:35:25.175Z,5.80
2018-12-09T00:39:30.270Z,5.80
2018-12-09T00:43:40.456Z,5.90
2018-12-09T00:47:45.751Z,5.90
2018-12-09T00:51:50.853Z,5.90
2018-12-09T00:56:03.036Z,5.80
2018-12-09T01:00:12.788Z,5.80
2018-12-09T01:04:21.576Z,6.00
2018-12-09T01:08:26.587Z,5.90
2018-12-09T01:12:32.513Z,5.90
2018-12-09T01:16:40.087Z,5.90
2018-12-09T01:20:45.236Z,5.90
2018-12-09T01:24:50.705Z,6.00
2018-12-09T01:28:55.822Z,6.00
2018-12-09T01:33:05.015Z,6.00
2018-12-09T01:37:09.957Z,6.00
2018-12-09T01:41:15.056Z,6.00
2018-12-09T01:45:22.886Z,5.90
2018-12-09T01:49:28.752Z,5.90
2018-12-09T01:54:03.732Z,5.80
2018-12-09T01:58:09.099Z,5.80
2018-12-09T02:02:14.740Z,5.80
2018-12-09T02:06:23.544Z,5.80
2018-12-09T02:10:28.714Z,5.80
2018-12-09T02:14:33.735Z,5.80
2018-12-09T02:22:47.951Z,5.80
2018-12-09T02:26:53.061Z,5.70
2018-12-09T02:35:10.897Z,5.80
2018-12-09T02:39:16.530Z,5.80
2018-12-09T02:43:24.671Z,5.90
2018-12-09T02:47:29.762Z,5.90
2018-12-09T02:51:35.760Z,5.90
2018-12-09T02:55:43.817Z,5.80
2018-12-09T02:59:48.745Z,5.90
2018-12-09T03:03:54.899Z,5.80
2018-12-09T03:08:03.011Z,5.80
2018-12-09T03:12:08.546Z,5.80
2018-12-09T03:16:13.713Z,5.80
2018-12-09T03:20:25.309Z,5.90
2018-12-09T03:24:30.733Z,5.90
2018-12-09T03:28:36.330Z,5.90
2018-12-09T03:32:44.398Z,5.90
2018-12-09T03:36:49.757Z,5.90
2018-12-09T03:40:54.918Z,5.90
2018-12-09T03:45:04.408Z,6.00
2018-12-09T03:49:09.569Z,5.90
2018-12-09T03:53:14.903Z,6.00
2018-12-09T03:57:23.824Z,6.00
2018-12-09T04:01:30.133Z,6.00
2018-12-09T04:05:37.018Z,5.90
2018-12-09T04:09:46.676Z,5.60
2018-12-09T04:13:52.824Z,5.70
2018-12-09T04:22:07.326Z,5.50
2018-12-09T04:26:12.871Z,5.30
2018-12-09T04:30:18.357Z,5.20
2018-12-09T04:34:27.426Z,5.20
2018-12-09T04:38:33.060Z,5.10
2018-12-09T04:46:51.041Z,4.90
2018-12-09T04:50:56.379Z,4.90
2018-12-09T04:55:04.922Z,4.50
2018-12-09T04:59:17.636Z,4.40
2018-12-09T05:03:30.099Z,4.30
2018-12-09T05:07:35.751Z,4.40
2018-12-09T05:11:40.767Z,4.30
2018-12-09T05:15:52.915Z,4.20
2018-12-09T05:19:58.691Z,4.10
2018-12-09T05:28:16.971Z,4.10
2018-12-09T05:32:22.000Z,3.90
2018-12-09T05:36:34.929Z,3.90
2018-12-09T05:40:40.580Z,4.10
2018-12-09T05:44:53.606Z,4.00
2018-12-09T05:48:58.691Z,4.00
2018-12-09T05:53:03.745Z,3.90
2018-12-09T05:57:13.141Z,3.90
2018-12-09T06:01:19.027Z,3.80
2018-12-09T06:09:36.722Z,3.70
2018-12-09T06:13:42.074Z,3.70
2018-12-09T06:17:50.281Z,3.70
2018-12-09T06:21:55.247Z,3.70
2018-12-09T06:26:00.226Z,3.80
2018-12-09T06:30:14.380Z,3.80
2018-12-09T06:34:19.752Z,3.90
2018-12-09T06:38:32.425Z,3.90
2018-12-09T06:42:37.487Z,3.90
2018-12-09T06:46:42.462Z,4.00
2018-12-09T06:50:52.704Z,4.00
2018-12-09T06:54:57.688Z,4.40
2018-12-09T06:59:03.039Z,4.30
2018-12-09T07:03:11.740Z,4.30
2018-12-09T07:07:17.269Z,4.50
2018-12-09T07:15:32.636Z,4.50
2018-12-09T07:19:37.873Z,4.50
2018-12-09T07:23:43.615Z,4.50
2018-12-09T07:27:53.043Z,4.40
2018-12-09T07:31:58.125Z,4.60
2018-12-09T07:36:03.153Z,4.60
2018-12-09T07:40:11.910Z,4.70
2018-12-09T07:44:17.046Z,4.60
2018-12-09T07:48:29.596Z,4.70
2018-12-09T07:52:36.355Z,4.70
2018-12-09T07:56:41.633Z,4.80
2018-12-09T08:00:49.768Z,4.90
2018-12-09T08:04:54.844Z,4.80
2018-12-09T08:08:59.836Z,4.80
2018-12-09T08:13:09.984Z,4.90
2018-12-09T08:17:14.934Z,5.00
2018-12-09T08:21:20.082Z,4.90
2018-12-09T08:25:28.253Z,5.00
2018-12-09T08:29:34.497Z,4.90
2018-12-09T08:33:39.406Z,4.90
2018-12-09T08:41:54.314Z,5.10
2018-12-09T08:46:00.193Z,5.20
2018-12-09T08:50:12.992Z,5.30
2018-12-09T08:54:18.304Z,5.40
2018-12-09T08:58:23.702Z,5.30
2018-12-09T09:02:30.768Z,5.30
2018-12-09T09:06:35.943Z,5.40
2018-12-09T09:10:41.215Z,5.30
2018-12-09T09:14:49.811Z,5.30
2018-12-09T09:18:55.320Z,5.30
2018-12-09T09:23:01.809Z,5.50
2018-12-09T09:27:19.963Z,5.50
2018-12-09T09:31:25.603Z,5.50
2018-12-09T09:35:34.586Z,5.60
2018-12-09T09:39:40.176Z,5.50
2018-12-09T09:43:45.493Z,5.50
2018-12-09T09:47:57.647Z,5.40
2018-12-09T09:52:05.037Z,5.40
2018-12-09T09:56:10.307Z,5.50
2018-12-09T10:00:18.342Z,5.50
2018-12-09T10:04:23.722Z,5.60
2018-12-09T10:08:29.425Z,5.40
2018-12-09T10:16:42.740Z,5.40
2018-12-09T10:20:48.359Z,5.50
2018-12-09T10:29:01.898Z,6.20
2018-12-09T10:33:06.946Z,6.50
2018-12-09T10:37:12.680Z,6.80
2018-12-09T10:41:20.916Z,6.70
2018-12-09T10:45:26.051Z,6.70
2018-12-09T10:49:31.603Z,6.90
2018-12-09T10:53:40.861Z,7.10
2018-12-09T10:57:47.175Z,7.00
2018-12-09T11:01:53.308Z,7.00
2018-12-09T11:06:00.207Z,6.10
2018-12-09T11:10:06.673Z,6.90
2018-12-09T11:14:13.492Z,7.00
2018-12-09T11:18:23.222Z,7.10
2018-12-09T11:22:28.391Z,7.10
2018-12-09T11:26:33.442Z,7.30
2018-12-09T11:30:40.807Z,7.20
2018-12-09T11:34:45.826Z,7.30
2018-12-09T11:38:50.831Z,7.30
2018-12-09T11:42:56.015Z,7.40
2018-12-09T11:47:09.283Z,7.50
2018-12-09T11:51:14.321Z,7.60
2018-12-09T11:59:32.137Z,7.60
2018-12-09T12:03:37.886Z,7.50
2018-12-09T12:07:52.930Z,7.70
2018-12-09T12:11:58.146Z,7.80
2018-12-09T12:16:06.820Z,7.90
2018-12-09T12:20:13.012Z,8.00
2018-12-09T12:24:18.506Z,8.10
2018-12-09T12:28:26.980Z,8.10
2018-12-09T12:32:32.098Z,8.10
2018-12-09T12:36:37.615Z,8.10
2018-12-09T12:40:45.069Z,8.10
2018-12-09T12:44:51.330Z,8.10
2018-12-09T12:48:57.160Z,8.10
2018-12-09T12:53:10.444Z,8.10
2018-12-09T12:57:15.483Z,8.00
2018-12-09T13:01:28.015Z,8.10
2018-12-09T13:05:33.969Z,8.10
2018-12-09T13:13:52.320Z,8.20
2018-12-09T13:22:08.827Z,8.20
2018-12-09T13:26:16.019Z,8.20
2018-12-09T13:30:28.754Z,8.10
2018-12-09T13:34:34.066Z,8.10
2018-12-09T13:38:43.814Z,8.10
2018-12-09T13:42:49.819Z,8.10
2018-12-09T13:46:54.822Z,8.20
2018-12-09T13:51:04.364Z,8.10
2018-12-09T13:55:09.305Z,8.00
2018-12-09T13:59:15.551Z,7.90
2018-12-09T14:03:23.083Z,7.80
2018-12-09T14:07:28.156Z,7.70
2018-12-09T14:11:35.449Z,7.70
2018-12-09T14:15:42.036Z,7.70
2018-12-09T14:19:51.291Z,7.60
2018-12-09T14:23:57.985Z,7.60
2018-12-09T14:28:03.164Z,7.50
2018-12-09T14:32:13.939Z,7.70
2018-12-09T14:36:20.816Z,7.60
2018-12-09T14:40:34.616Z,7.70
2018-12-09T14:44:41.114Z,7.70
2018-12-09T14:48:50.923Z,7.60
2018-12-09T14:52:57.205Z,7.60
2018-12-09T14:57:03.424Z,7.60
2018-12-09T15:01:12.988Z,7.60
2018-12-09T15:05:18.435Z,7.60
2018-12-09T15:09:23.468Z,7.70
2018-12-09T15:13:32.915Z,7.60
2018-12-09T15:17:39.992Z,7.70
2018-12-09T15:21:50.634Z,7.70
2018-12-09T15:25:56.769Z,7.70
2018-12-09T15:30:02.125Z,7.70
2018-12-09T15:34:12.163Z,7.60
2018-12-09T15:38:17.948Z,7.60
2018-12-09T15:42:23.197Z,7.50
2018-12-09T15:46:29.631Z,7.40
2018-12-09T15:50:58.990Z,7.40
2018-12-09T15:55:05.349Z,7.40
2018-12-09T15:59:13.692Z,7.40
2018-12-09T16:03:19.745Z,7.40
2018-12-09T16:07:24.717Z,7.40
2018-12-09T16:15:42.093Z,7.30
2018-12-09T16:19:47.578Z,7.30
2018-12-09T16:24:00.426Z,7.20
2018-12-09T16:28:07.376Z,7.20
2018-12-09T16:32:16.382Z,7.10
2018-12-09T16:36:21.507Z,7.20
2018-12-09T16:40:26.626Z,7.00
2018-12-09T16:44:35.068Z,6.90
2018-12-09T16:48:40.162Z,7.00
2018-12-09T16:52:45.458Z,7.00
2018-12-09T16:56:54.943Z,7.00
2018-12-09T17:01:00.835Z,6.90
2018-12-09T17:05:06.560Z,6.80
2018-12-09T17:09:15.588Z,6.90
2018-12-09T17:13:20.943Z,6.90
2018-12-09T17:17:26.934Z,6.90
2018-12-09T17:21:39.457Z,6.80
2018-12-09T17:25:44.511Z,6.70
2018-12-09T17:29:54.026Z,6.70
2018-12-09T17:34:00.159Z,6.60
2018-12-09T17:38:06.607Z,6.60
2018-12-09T17:42:19.946Z,6.50
2018-12-09T17:46:24.987Z,6.40
2018-12-09T17:50:33.850Z,6.30
2018-12-09T17:54:38.952Z,6.30
2018-12-09T17:58:44.330Z,6.30
2018-12-09T18:07:03.171Z,6.40
2018-12-09T18:11:08.278Z,6.50
2018-12-09T18:15:23.252Z,6.50
2018-12-09T18:19:28.356Z,6.40
2018-12-09T18:23:40.274Z,6.40
2018-12-09T18:27:45.603Z,6.30
2018-12-09T18:31:56.481Z,6.30
2018-12-09T18:36:01.914Z,6.40
2018-12-09T18:40:08.933Z,6.40
2018-12-09T18:44:14.176Z,6.50
2018-12-09T18:48:23.205Z,6.70
2018-12-09T18:52:28.518Z,6.70
2018-12-09T18:56:38.686Z,6.70
2018-12-09T19:00:43.831Z,6.70
2018-12-09T19:04:50.156Z,6.70
2018-12-09T19:08:55.378Z,6.80
2018-12-09T19:13:05.152Z,6.70
2018-12-09T19:17:11.856Z,6.70
2018-12-09T19:21:17.922Z,6.70
2018-12-09T19:25:25.251Z,6.70
2018-12-09T19:29:31.134Z,6.70
2018-12-09T19:33:37.086Z,6.60
2018-12-09T19:37:45.239Z,6.60
2018-12-09T19:41:50.441Z,6.60
2018-12-09T19:45:57.156Z,6.70
2018-12-09T19:50:10.073Z,6.70
2018-12-09T19:54:17.015Z,6.60
2018-12-09T19:58:27.286Z,6.60
2018-12-09T20:02:33.476Z,6.50
2018-12-09T20:06:38.615Z,6.50
2018-12-09T20:15:02.301Z,6.60
2018-12-09T20:19:10.226Z,6.50
2018-12-09T20:23:15.684Z,6.40
2018-12-09T20:27:21.387Z,6.40
2018-12-09T20:31:29.453Z,6.30
2018-12-09T20:35:36.591Z,6.30
2018-12-09T20:39:42.432Z,6.50
2018-12-09T20:43:49.903Z,6.40
2018-12-09T20:47:54.969Z,6.50
2018-12-09T20:52:00.662Z,6.60
2018-12-09T20:56:12.998Z,6.60
2018-12-09T21:00:19.291Z,6.60
2018-12-09T21:08:34.279Z,6.60
2018-12-09T21:12:39.314Z,6.70
2018-12-09T21:20:53.034Z,6.60
2018-12-09T21:24:59.256Z,6.60
2018-12-09T21:29:04.669Z,6.60
2018-12-09T21:33:14.307Z,6.60
2018-12-09T21:37:22.671Z,6.70
2018-12-09T21:41:29.740Z,6.80
2018-12-09T21:49:44.140Z,6.80
2018-12-09T21:53:49.221Z,6.80
2018-12-09T22:02:07.992Z,6.70
2018-12-09T22:06:19.044Z,6.70
2018-12-09T22:10:24.347Z,6.70
2018-12-09T22:14:31.441Z,6.80
2018-12-09T22:18:41.719Z,6.80
2018-12-09T22:22:50.402Z,6.70
2018-12-09T22:27:00.852Z,6.70
2018-12-09T22:31:06.241Z,6.60
2018-12-09T22:35:11.966Z,6.60
2018-12-09T22:39:20.359Z,6.70
2018-12-09T22:43:26.562Z,6.70
2018-12-09T22:47:33.701Z,6.60
2018-12-09T22:51:42.101Z,6.60
2018-12-09T22:55:47.580Z,6.60
2018-12-09T22:59:53.315Z,6.70
2018-12-09T23:04:02.446Z,6.70
2018-12-09T23:08:07.513Z,6.70
2018-12-09T23:12:12.609Z,6.70
2018-12-09T23:16:25.212Z,6.80
2018-12-09T23:20:30.917Z,6.80
2018-12-09T23:24:39.410Z,6.80
2018-12-09T23:28:44.663Z,6.90
2018-12-09T23:32:49.790Z,6.90
2018-12-09T23:36:58.289Z,7.00
2018-12-09T23:41:03.816Z,7.00
2018-12-09T23:45:08.841Z,7.00
2018-12-09T23:49:13.832Z,7.00
2018-12-09T23:53:22.236Z,7.00
2018-12-09T23:57:28.110Z,7.00
